Time;durP1;ratioP1;P1;durP2;ratioP2;P2;SDS_P1;SDS_P2;PMS_P1;PMS_P2;Temp;Humidity;BMP_temperature;BMP_pressure;BME280_temperature;BME280_humidity;BME280_pressure;Samples;Min_cycle;Max_cycle;Signal;HPM_P1;HPM_P2
2021/11/13 00:00:25;;;;;;;125.92;55.12;;;;;;;5.33;83.60;100684.39;1792813;80;21048;-80
2021/11/13 00:02:53;;;;;;;121.25;57.53;;;;;;;5.33;83.59;100675.13;1793477;79;21008;-80
2021/11/13 00:05:19;;;;;;;118.93;53.87;;;;;;;5.34;83.60;100676.34;1766146;80;21122;-80
2021/11/13 00:07:45;;;;;;;112.25;53.80;;;;;;;5.36;83.60;100673.07;1758568;81;21479;-80
2021/11/13 00:10:13;;;;;;;116.20;56.13;;;;;;;5.34;83.58;100677.66;1758732;81;21065;-81
2021/11/13 00:12:39;;;;;;;127.47;58.73;;;;;;;5.34;83.58;100678.98;1757417;81;21057;-81
2021/11/13 00:15:06;;;;;;;120.20;55.80;;;;;;;5.35;83.59;100676.67;1757943;81;21116;-81
2021/11/13 00:17:32;;;;;;;112.70;52.85;;;;;;;5.39;83.62;100671.96;1758036;81;21846;-81
2021/11/13 00:19:58;;;;;;;113.35;52.93;;;;;;;5.37;83.62;100668.14;1758124;80;21006;-80
2021/11/13 00:22:25;;;;;;;109.55;53.02;;;;;;;5.36;83.62;100666.45;1758421;81;20946;-80
2021/11/13 00:24:51;;;;;;;123.18;53.58;;;;;;;5.37;83.62;100660.20;1758161;80;21082;-80
2021/11/13 00:27:17;;;;;;;114.05;51.92;;;;;;;5.37;83.62;100658.05;1731919;82;21005;-80
2021/11/13 00:29:43;;;;;;;115.37;50.83;;;;;;;5.36;83.63;100649.27;1731745;82;21123;-80
2021/11/13 00:32:09;;;;;;;115.28;51.55;;;;;;;5.34;83.61;100648.58;1731568;82;21576;-80
2021/11/13 00:34:35;;;;;;;113.40;52.58;;;;;;;5.35;83.59;100652.88;1731745;82;21049;-80
2021/11/13 00:37:01;;;;;;;115.47;53.55;;;;;;;5.36;83.61;100653.23;1731402;82;20878;-80
2021/11/13 00:39:27;;;;;;;106.92;50.48;;;;;;;5.39;83.61;100657.41;1763486;81;21460;-80
2021/11/13 00:41:53;;;;;;;110.83;52.58;;;;;;;5.38;83.62;100649.96;1765344;81;21122;-80
2021/11/13 00:44:21;;;;;;;104.87;50.25;;;;;;;5.38;83.62;100657.09;1793332;80;21064;-80
2021/11/13 00:46:47;;;;;;;105.03;51.35;;;;;;;5.38;83.61;100652.61;1792974;80;20907;-80
2021/11/13 00:49:13;;;;;;;104.40;49.40;;;;;;;5.37;83.61;100647.47;1760486;81;21081;-80
2021/11/13 00:51:39;;;;;;;115.52;53.00;;;;;;;5.38;83.62;100649.96;1758333;81;20863;-80
2021/11/13 00:54:05;;;;;;;98.20;44.15;;;;;;;5.40;83.64;100663.91;1765422;81;21988;-80
2021/11/13 00:56:31;;;;;;;102.90;48.52;;;;;;;5.39;83.65;100654.29;1765496;81;21049;-80
2021/11/13 00:58:57;;;;;;;92.25;45.17;;;;;;;5.40;83.64;100652.48;1764953;81;21021;-80
2021/11/13 01:01:23;;;;;;;102.45;49.42;;;;;;;5.41;83.63;100646.24;1784299;78;21040;-80
2021/11/13 01:03:49;;;;;;;99.50;48.23;;;;;;;5.41;83.62;100655.02;1791728;78;21001;-80
2021/11/13 01:06:15;;;;;;;99.65;47.53;;;;;;;5.44;83.63;100651.27;1794820;79;21052;-80
2021/11/13 01:08:41;;;;;;;105.20;48.00;;;;;;;5.47;83.63;100651.84;1794510;80;20973;-80
2021/11/13 01:11:08;;;;;;;107.90;52.33;;;;;;;5.49;83.64;100644.59;1794509;80;21579;-80
2021/11/13 01:13:34;;;;;;;114.22;51.80;;;;;;;5.52;83.65;100644.33;1794783;79;20993;-80
2021/11/13 01:16:00;;;;;;;104.07;48.00;;;;;;;5.50;83.66;100633.06;1793932;80;21036;-80
2021/11/13 01:18:26;;;;;;;90.03;42.95;;;;;;;5.50;83.64;100625.61;1794242;79;21186;-80
2021/11/13 01:20:52;;;;;;;90.62;43.13;;;;;;;5.47;83.64;100624.55;1792281;80;21494;-80
2021/11/13 01:23:19;;;;;;;82.60;40.55;;;;;;;5.46;83.64;100619.73;1792243;80;21029;-80
2021/11/13 01:25:46;;;;;;;85.95;41.08;;;;;;;5.47;83.65;100626.72;1792607;80;21485;-80
2021/11/13 01:28:12;;;;;;;79.82;39.83;;;;;;;5.46;83.63;100625.03;1792775;80;21048;-80
2021/11/13 01:30:38;;;;;;;80.77;42.27;;;;;;;5.49;83.64;100621.28;1792538;80;21072;-80
2021/11/13 01:33:04;;;;;;;87.72;41.13;;;;;;;5.47;83.62;100618.78;1792604;80;21005;-80
2021/11/13 01:35:30;;;;;;;85.67;41.10;;;;;;;5.48;83.64;100611.21;1792686;80;21052;-80
2021/11/13 01:37:57;;;;;;;82.62;39.38;;;;;;;5.48;83.65;100611.21;1792495;80;21556;-81
2021/11/13 01:40:24;;;;;;;81.85;40.80;;;;;;;5.47;83.64;100612.65;1792875;80;21009;-80
2021/11/13 01:42:50;;;;;;;84.30;39.45;;;;;;;5.48;83.64;100611.21;1792733;80;21094;-80
2021/11/13 01:45:17;;;;;;;89.55;43.83;;;;;;;5.49;83.63;100610.22;1792715;80;21017;-80
2021/11/13 01:47:42;;;;;;;88.35;42.17;;;;;;;5.49;83.63;100607.57;1792429;80;21486;-81
2021/11/13 01:50:17;;;;;;;85.10;42.75;;;;;;;5.48;83.64;100604.59;1792362;80;21131;-81
2021/11/13 01:52:43;;;;;;;88.70;44.50;;;;;;;5.48;83.64;100605.08;1792677;80;21096;-79
2021/11/13 01:55:09;;;;;;;87.40;42.35;;;;;;;5.48;83.64;100604.59;1792692;79;21116;-79
2021/11/13 01:57:46;;;;;;;93.40;45.12;;;;;;;5.46;83.62;100603.88;1792393;80;21001;-79
2021/11/13 02:00:16;;;;;;;92.37;43.05;;;;;;;5.47;83.62;100599.42;1792388;80;21053;-78
2021/11/13 02:02:42;;;;;;;79.42;40.28;;;;;;;5.48;83.62;100599.79;1792499;80;21036;-79
2021/11/13 02:05:09;;;;;;;86.17;40.75;;;;;;;5.46;83.60;100595.94;1792544;80;21130;-79
2021/11/13 02:07:35;;;;;;;86.63;39.90;;;;;;;5.44;83.61;100592.60;1792668;80;21521;-79
2021/11/13 02:10:04;;;;;;;90.57;44.75;;;;;;;5.43;83.60;100588.75;1792499;80;21447;-79
2021/11/13 02:12:30;;;;;;;60.53;30.27;;;;;;;5.43;83.60;100591.40;1792840;80;21005;-78
2021/11/13 02:14:56;;;;;;;79.85;37.08;;;;;;;5.45;83.61;100588.97;1792408;80;20993;-78
2021/11/13 02:17:22;;;;;;;76.90;39.23;;;;;;;5.43;83.61;100585.63;1792555;80;21099;-78
2021/11/13 02:19:50;;;;;;;87.10;41.60;;;;;;;5.41;83.60;100583.61;1793706;80;21145;-78
2021/11/13 02:22:16;;;;;;;78.25;38.65;;;;;;;5.41;83.61;100590.23;1794347;80;20997;-78
2021/11/13 02:24:45;;;;;;;81.37;39.05;;;;;;;5.41;83.58;100588.06;1794307;80;21005;-78
2021/11/13 02:27:12;;;;;;;73.25;36.80;;;;;;;5.44;83.61;100595.25;1794725;79;21013;-78
2021/11/13 02:29:38;;;;;;;75.28;36.28;;;;;;;5.43;83.59;100588.27;1794516;79;21020;-78
2021/11/13 02:32:05;;;;;;;76.80;37.10;;;;;;;5.42;83.59;100585.27;1794603;79;21483;-78
2021/11/13 02:34:32;;;;;;;70.83;35.03;;;;;;;5.43;83.59;100590.92;1794052;78;21056;-78
2021/11/13 02:36:58;;;;;;;74.40;35.05;;;;;;;5.43;83.58;100588.75;1794587;79;21075;-78
2021/11/13 02:39:24;;;;;;;68.15;33.65;;;;;;;5.45;83.59;100588.97;1794429;80;21028;-78
2021/11/13 02:41:50;;;;;;;68.35;34.45;;;;;;;5.43;83.58;100582.98;1794716;80;21512;-78
2021/11/13 02:44:17;;;;;;;64.70;34.05;;;;;;;5.37;83.54;100572.10;1794629;80;21123;-78
2021/11/13 02:46:43;;;;;;;67.62;32.80;;;;;;;5.40;83.54;100581.93;1793952;80;20997;-77
2021/11/13 02:49:10;;;;;;;71.53;33.95;;;;;;;5.37;83.51;100581.36;1794599;80;21009;-78
2021/11/13 02:51:36;;;;;;;64.77;32.45;;;;;;;5.36;83.52;100575.23;1794557;80;21037;-78
2021/11/13 02:54:03;;;;;;;60.63;30.90;;;;;;;5.38;83.51;100576.43;1794717;79;21876;-78
2021/11/13 02:56:29;;;;;;;58.28;31.73;;;;;;;5.32;83.49;100575.13;1794551;80;21342;-78
2021/11/13 02:58:55;;;;;;;70.20;33.63;;;;;;;5.29;83.48;100572.76;1794244;80;21099;-78
2021/11/13 03:01:23;;;;;;;74.72;34.63;;;;;;;5.25;83.48;100584.56;1794472;80;21040;-78
2021/11/13 03:03:50;;;;;;;69.97;34.15;;;;;;;5.27;83.48;100580.00;1794475;80;21013;-78
2021/11/13 03:06:16;;;;;;;69.32;33.05;;;;;;;5.29;83.50;100580.69;1794661;80;21552;-78
2021/11/13 03:08:43;;;;;;;69.17;33.73;;;;;;;5.32;83.48;100581.74;1794755;78;21061;-78
2021/11/13 03:11:12;;;;;;;69.07;36.08;;;;;;;5.29;83.47;100584.66;1794627;80;21036;-80
2021/11/13 03:13:40;;;;;;;77.17;38.75;;;;;;;5.31;83.49;100582.70;1794282;80;21064;-80
2021/11/13 03:16:06;;;;;;;65.00;31.97;;;;;;;5.33;83.49;100578.14;1794409;79;21061;-80
2021/11/13 03:18:33;;;;;;;70.32;32.98;;;;;;;5.32;83.47;100575.13;1794512;80;21060;-80
2021/11/13 03:21:05;;;;;;;74.60;34.27;;;;;;;5.30;83.45;100585.50;1794541;79;21883;-80
2021/11/13 03:23:28;;;;;;;81.82;38.23;;;;;;;5.25;83.44;100587.20;1793926;80;21028;-80
2021/11/13 03:26:01;;;;;;;76.82;37.98;;;;;;;5.28;83.44;100590.91;1793944;79;21021;-80
2021/11/13 03:28:28;;;;;;;66.97;33.30;;;;;;;5.29;83.44;100589.94;1794560;78;21048;-80
2021/11/13 03:30:55;;;;;;;75.30;37.13;;;;;;;5.28;83.44;100590.91;1794232;80;21557;-80
2021/11/13 03:33:21;;;;;;;74.50;34.13;;;;;;;5.27;83.45;100589.25;1794724;79;21517;-80
2021/11/13 03:35:47;;;;;;;69.80;33.85;;;;;;;5.26;83.43;100587.56;1794569;80;20973;-80
2021/11/13 03:38:15;;;;;;;64.53;32.30;;;;;;;5.24;83.41;100593.45;1794527;79;21057;-80
2021/11/13 03:40:44;;;;;;;67.30;34.88;;;;;;;5.23;83.42;100597.56;1794831;79;21505;-80
2021/11/13 03:43:10;;;;;;;64.12;32.13;;;;;;;5.22;83.43;100602.02;1794884;80;21056;-80
2021/11/13 03:45:37;;;;;;;71.35;33.10;;;;;;;5.23;83.42;100601.05;1794783;80;21505;-80
2021/11/13 03:48:03;;;;;;;68.25;33.78;;;;;;;5.21;83.42;100595.04;1794308;79;21426;-80
2021/11/13 03:50:30;;;;;;;76.10;36.55;;;;;;;5.17;83.39;100594.97;1794743;80;21018;-80
2021/11/13 03:52:56;;;;;;;63.68;33.88;;;;;;;5.15;83.40;100598.22;1794569;80;21017;-80
2021/11/13 03:55:23;;;;;;;72.72;34.75;;;;;;;5.14;83.42;100593.89;1794886;80;21068;-80
2021/11/13 03:57:49;;;;;;;69.62;33.35;;;;;;;5.15;83.40;100599.53;1794608;80;21126;-81
2021/11/13 04:00:16;;;;;;;67.42;32.03;;;;;;;5.15;83.41;100595.57;1794009;79;20998;-81
2021/11/13 04:02:45;;;;;;;66.55;34.55;;;;;;;5.14;83.43;100601.81;1794899;79;21339;-81
2021/11/13 04:05:10;;;;;;;71.22;33.58;;;;;;;5.11;83.39;100603.41;1794543;80;21001;-81
2021/11/13 04:07:37;;;;;;;67.27;32.67;;;;;;;5.12;83.42;100611.70;1794787;79;21505;-81
2021/11/13 04:10:06;;;;;;;60.28;31.40;;;;;;;5.11;83.40;100617.94;1794691;80;21802;-80
2021/11/13 04:12:33;;;;;;;65.87;33.25;;;;;;;5.10;83.40;100611.00;1794749;79;21215;-80
2021/11/13 04:14:59;;;;;;;65.47;32.58;;;;;;;5.14;83.42;100615.03;1794518;80;21017;-81
2021/11/13 04:17:26;;;;;;;67.32;32.53;;;;;;;5.17;83.41;100610.84;1794872;80;20989;-81
2021/11/13 04:19:52;;;;;;;67.82;33.83;;;;;;;5.18;83.37;100615.13;1794625;79;21013;-80
2021/11/13 04:22:18;;;;;;;63.60;32.70;;;;;;;5.13;83.39;100609.89;1794287;80;21187;-80
2021/11/13 04:24:45;;;;;;;64.47;33.83;;;;;;;5.09;83.38;100609.31;1794883;80;21014;-80
2021/11/13 04:27:11;;;;;;;64.97;32.48;;;;;;;5.09;83.40;100604.03;1794853;80;21017;-81
2021/11/13 04:29:37;;;;;;;68.05;33.00;;;;;;;5.05;83.39;100602.61;1794626;79;21563;-80
2021/11/13 04:32:04;;;;;;;62.88;32.40;;;;;;;5.01;83.36;100601.19;1794666;79;21016;-80
2021/11/13 04:34:41;;;;;;;68.97;35.17;;;;;;;4.95;83.36;100592.46;1794804;78;21719;-80
2021/11/13 04:37:01;;;;;;;68.22;33.00;;;;;;;4.90;83.36;100588.88;1792693;80;21565;-80
2021/11/13 04:39:26;;;;;;;63.38;32.63;;;;;;;4.87;83.39;100589.63;1794650;78;21037;-80
2021/11/13 04:41:54;;;;;;;68.10;35.15;;;;;;;4.82;83.38;100585.22;1794890;79;21299;-79
2021/11/13 04:44:20;;;;;;;71.15;34.43;;;;;;;4.78;83.36;100581.16;1794573;79;21005;-79
2021/11/13 04:46:46;;;;;;;63.75;33.38;;;;;;;4.74;83.38;100577.94;1794603;80;21072;-79
2021/11/13 04:49:14;;;;;;;75.57;33.63;;;;;;;4.69;83.39;100580.59;1794158;80;20997;-79
2021/11/13 04:51:40;;;;;;;79.80;36.53;;;;;;;4.65;83.39;100580.48;1794320;80;21079;-79
2021/11/13 04:54:06;;;;;;;75.37;35.88;;;;;;;4.62;83.40;100583.38;1794775;79;21450;-79
2021/11/13 04:56:32;;;;;;;76.62;35.73;;;;;;;4.58;83.40;100589.87;1794845;80;21418;-80
2021/11/13 04:58:58;;;;;;;73.12;35.80;;;;;;;4.53;83.38;100589.80;1794274;80;21727;-80
2021/11/13 05:01:24;;;;;;;71.97;36.28;;;;;;;4.49;83.43;100583.58;1794061;79;21481;-79
2021/11/13 05:03:51;;;;;;;73.00;34.88;;;;;;;4.45;83.44;100589.59;1794659;79;20993;-80
2021/11/13 05:06:20;;;;;;;81.97;38.88;;;;;;;4.41;83.46;100589.48;1794587;79;21072;-80
2021/11/13 05:08:45;;;;;;;80.32;38.63;;;;;;;4.38;83.48;100592.85;1794430;80;21565;-79
2021/11/13 05:11:12;;;;;;;87.95;40.75;;;;;;;4.34;83.50;100594.91;1794670;79;21494;-80
2021/11/13 05:13:38;;;;;;;90.10;42.10;;;;;;;4.29;83.51;100595.75;1794256;79;20977;-79
2021/11/13 05:16:04;;;;;;;79.85;40.12;;;;;;;4.25;83.50;100600.95;1794335;80;21008;-79
2021/11/13 05:18:30;;;;;;;74.60;38.80;;;;;;;4.24;83.54;100599.27;1794392;80;21095;-79
2021/11/13 05:20:56;;;;;;;66.60;35.83;;;;;;;4.25;83.57;100599.63;1793073;79;21009;-79
2021/11/13 05:23:22;;;;;;;64.75;33.45;;;;;;;4.23;83.59;100596.26;1792511;80;21121;-79
2021/11/13 05:25:48;;;;;;;72.12;37.58;;;;;;;4.22;83.61;100599.84;1792534;80;21095;-79
2021/11/13 05:28:14;;;;;;;68.70;33.70;;;;;;;4.18;83.62;100598.45;1792829;80;21017;-79
2021/11/13 05:30:41;;;;;;;70.65;36.17;;;;;;;4.09;83.63;100599.17;1792700;80;21080;-79
2021/11/13 05:33:07;;;;;;;67.27;35.40;;;;;;;3.99;83.66;100596.92;1792791;80;21024;-79
2021/11/13 05:35:33;;;;;;;67.92;33.48;;;;;;;3.96;83.67;100594.05;1792694;78;21450;-78
2021/11/13 05:37:59;;;;;;;73.62;32.70;;;;;;;3.93;83.74;100596.95;1792667;80;21033;-78
2021/11/13 05:40:25;;;;;;;65.92;32.80;;;;;;;3.91;83.74;100594.89;1792158;78;20889;-79
2021/11/13 05:42:52;;;;;;;67.80;31.70;;;;;;;3.89;83.75;100592.03;1792266;80;21001;-79
2021/11/13 05:45:18;;;;;;;69.42;33.98;;;;;;;3.83;83.74;100594.69;1792827;80;21478;-79
2021/11/13 05:47:44;;;;;;;76.75;36.35;;;;;;;3.76;83.77;100594.81;1792574;80;21728;-79
2021/11/13 05:50:12;;;;;;;81.53;37.58;;;;;;;3.74;83.77;100598.52;1792619;80;20990;-79
2021/11/13 05:52:40;;;;;;;73.40;36.40;;;;;;;3.70;83.79;100599.70;1792402;79;21529;-78
2021/11/13 05:55:07;;;;;;;71.35;38.42;;;;;;;3.67;83.76;100597.31;1792660;80;21025;-79
2021/11/13 05:57:33;;;;;;;66.33;34.13;;;;;;;3.67;83.79;100602.59;1792140;80;21052;-79
2021/11/13 05:59:59;;;;;;;70.32;34.70;;;;;;;3.67;83.81;100599.95;1792425;80;21492;-79
2021/11/13 06:02:25;;;;;;;62.45;32.93;;;;;;;3.68;83.83;100600.33;1792121;80;21001;-79
2021/11/13 06:04:51;;;;;;;71.97;35.17;;;;;;;3.69;83.84;100596.73;1776245;80;21541;-78
2021/11/13 06:07:18;;;;;;;68.42;33.58;;;;;;;3.70;83.82;100602.34;1792726;80;21064;-79
2021/11/13 06:09:44;;;;;;;71.37;34.70;;;;;;;3.72;83.85;100603.08;1792465;80;21009;-79
2021/11/13 06:12:10;;;;;;;62.62;33.30;;;;;;;3.73;83.86;100592.91;1792633;79;21048;-79
2021/11/13 06:14:36;;;;;;;59.33;31.42;;;;;;;3.75;83.85;100598.88;1791974;80;21033;-79
2021/11/13 06:17:03;;;;;;;67.10;33.40;;;;;;;3.75;83.86;100601.52;1765364;81;21054;-79
2021/11/13 06:19:30;;;;;;;70.40;34.33;;;;;;;3.74;83.89;100599.83;1792237;80;21025;-79
2021/11/13 06:21:56;;;;;;;76.07;35.90;;;;;;;3.74;83.90;100590.60;1773753;79;21583;-79
2021/11/13 06:24:22;;;;;;;77.62;37.85;;;;;;;3.75;83.91;100598.88;1759617;80;21949;-79
2021/11/13 06:26:48;;;;;;;72.60;36.10;;;;;;;3.73;83.93;100594.22;1765594;81;21421;-79
2021/11/13 06:29:14;;;;;;;69.65;33.78;;;;;;;3.76;83.94;100593.97;1760162;81;21068;-79
2021/11/13 06:31:40;;;;;;;76.65;35.83;;;;;;;3.79;83.96;100597.68;1765310;81;21001;-79
2021/11/13 06:34:06;;;;;;;74.20;35.78;;;;;;;3.83;83.98;100600.44;1792389;80;21044;-79
2021/11/13 06:36:32;;;;;;;78.20;37.95;;;;;;;3.86;83.99;100610.74;1765399;81;21517;-79
2021/11/13 06:38:58;;;;;;;80.53;39.48;;;;;;;3.90;84.00;100617.45;1780127;80;21737;-79
2021/11/13 06:41:29;;;;;;;81.60;39.83;;;;;;;3.93;84.02;100615.89;1764350;81;20994;-79
2021/11/13 06:43:53;;;;;;;75.55;38.23;;;;;;;3.97;84.03;100597.54;1763851;81;21549;-79
2021/11/13 06:46:19;;;;;;;90.12;42.70;;;;;;;3.95;84.04;100600.76;1764689;80;21064;-80
2021/11/13 06:48:45;;;;;;;97.50;47.03;;;;;;;3.95;84.05;100617.91;1760713;80;21129;-79
2021/11/13 06:51:11;;;;;;;91.55;44.40;;;;;;;3.96;84.08;100594.53;1765252;81;21057;-80
2021/11/13 06:53:37;;;;;;;95.77;46.68;;;;;;;3.93;84.07;100606.18;1792370;79;21063;-78
2021/11/13 06:56:03;;;;;;;91.45;44.83;;;;;;;3.92;84.07;100599.69;1792249;78;21459;-79
2021/11/13 06:58:29;;;;;;;91.17;43.52;;;;;;;3.89;84.09;100598.62;1792326;80;21088;-79
2021/11/13 07:00:56;;;;;;;92.65;44.88;;;;;;;3.87;84.08;100596.59;1775506;80;21093;-79
2021/11/13 07:03:21;;;;;;;100.55;48.20;;;;;;;3.87;84.12;100611.11;1759301;81;21058;-79
2021/11/13 07:05:48;;;;;;;99.92;49.18;;;;;;;3.89;84.14;100603.89;1765165;81;21070;-79
2021/11/13 07:08:14;;;;;;;84.70;43.65;;;;;;;3.93;84.16;100611.93;1762667;81;21005;-79
2021/11/13 07:10:40;;;;;;;84.40;42.05;;;;;;;3.96;84.16;100591.89;1765416;81;21008;-79
2021/11/13 07:13:06;;;;;;;100.58;48.75;;;;;;;3.94;84.15;100593.83;1792334;80;21591;-79
2021/11/13 07:15:32;;;;;;;94.47;46.13;;;;;;;3.93;84.17;100621.16;1764822;81;21614;-80
2021/11/13 07:18:02;;;;;;;96.42;46.25;;;;;;;3.94;84.19;100613.62;1756618;81;21101;-79
2021/11/13 07:20:30;;;;;;;106.58;48.63;;;;;;;3.96;84.25;100606.41;1786908;79;20998;-79
2021/11/13 07:22:56;;;;;;;91.12;45.08;;;;;;;3.98;84.24;100624.25;1739042;82;21061;-79
2021/11/13 07:25:23;;;;;;;93.85;47.20;;;;;;;4.03;84.24;100639.25;1738986;81;21065;-79
2021/11/13 07:27:49;;;;;;;100.62;47.13;;;;;;;4.08;84.25;100647.66;1787643;80;21048;-79
2021/11/13 07:30:18;;;;;;;94.85;45.43;;;;;;;4.12;84.27;100635.87;1793326;80;21010;-79
2021/11/13 07:32:45;;;;;;;107.20;50.33;;;;;;;4.17;84.29;100628.91;1759164;81;21014;-79
2021/11/13 07:35:11;;;;;;;130.00;61.65;;;;;;;4.20;84.33;100633.46;1787198;80;21077;-79
2021/11/13 07:37:37;;;;;;;128.38;64.27;;;;;;;4.22;84.34;100644.72;1775303;80;21131;-79
2021/11/13 07:40:04;;;;;;;217.25;109.00;;;;;;;4.22;84.36;100613.05;1775130;80;21448;-78
2021/11/13 07:42:30;;;;;;;102.65;49.55;;;;;;;4.21;84.34;100621.95;1775028;80;21036;-78
2021/11/13 07:44:59;;;;;;;93.58;47.00;;;;;;;4.21;84.36;100632.51;1775079;80;21519;-78
2021/11/13 07:47:24;;;;;;;97.17;47.30;;;;;;;4.25;84.38;100631.30;1775211;80;21058;-78
2021/11/13 07:49:50;;;;;;;98.97;48.50;;;;;;;4.28;84.39;100637.65;1775219;80;21498;-78
2021/11/13 07:52:16;;;;;;;100.10;52.48;;;;;;;4.27;84.40;100618.80;1775167;80;21050;-78
2021/11/13 07:54:42;;;;;;;106.15;50.85;;;;;;;4.30;84.42;100637.03;1775084;80;21045;-78
2021/11/13 07:57:08;;;;;;;101.00;48.98;;;;;;;4.35;84.44;100625.62;1775270;80;21483;-79
2021/11/13 07:59:35;;;;;;;97.80;46.40;;;;;;;4.39;84.45;100624.42;1775296;80;21483;-79
2021/11/13 08:02:02;;;;;;;94.85;47.98;;;;;;;4.41;84.47;100625.12;1774821;80;21856;-79
2021/11/13 08:04:28;;;;;;;101.85;48.35;;;;;;;4.42;84.49;100617.56;1775317;80;21021;-79
2021/11/13 08:06:54;;;;;;;99.25;48.55;;;;;;;4.43;84.49;100620.55;1774622;80;21001;-79
2021/11/13 08:09:20;;;;;;;99.70;49.40;;;;;;;4.49;84.50;100623.18;1772760;80;20969;-79
2021/11/13 08:11:47;;;;;;;104.03;52.43;;;;;;;4.50;84.50;100621.72;1758370;79;21485;-79
2021/11/13 08:14:13;;;;;;;107.83;53.65;;;;;;;4.51;84.49;100632.64;1774707;80;21548;-79
2021/11/13 08:16:39;;;;;;;100.53;47.25;;;;;;;4.59;84.52;100641.74;1791521;79;21567;-79
2021/11/13 08:19:05;;;;;;;103.32;49.75;;;;;;;4.63;84.51;100653.73;1762619;79;21030;-79
2021/11/13 08:21:31;;;;;;;100.35;49.08;;;;;;;4.65;84.51;100622.27;1764336;80;20995;-79
2021/11/13 08:23:59;;;;;;;96.80;47.45;;;;;;;4.69;84.53;100595.95;1761566;80;21590;-79
2021/11/13 08:26:26;;;;;;;116.90;54.85;;;;;;;4.74;84.53;100630.77;1746193;81;21837;-78
2021/11/13 08:28:52;;;;;;;115.08;54.95;;;;;;;4.82;84.52;100630.14;1788380;79;21045;-79
2021/11/13 08:31:18;;;;;;;106.83;52.05;;;;;;;4.99;84.54;100611.06;1770606;81;21169;-79
2021/11/13 08:33:44;;;;;;;99.77;50.40;;;;;;;5.12;84.51;100622.27;1770699;81;20874;-79
2021/11/13 08:36:10;;;;;;;93.62;49.03;;;;;;;5.25;84.50;100625.55;1770705;81;21009;-78
2021/11/13 08:38:36;;;;;;;87.62;47.15;;;;;;;5.42;84.48;100633.35;1770472;79;21151;-79
2021/11/13 08:41:03;;;;;;;97.78;50.15;;;;;;;5.54;84.47;100626.55;1770181;79;20973;-78
2021/11/13 08:43:29;;;;;;;98.82;51.23;;;;;;;5.66;84.48;100631.75;1792156;80;20996;-79
2021/11/13 08:45:55;;;;;;;98.27;48.70;;;;;;;5.75;84.46;100621.20;1785209;79;21201;-79
2021/11/13 08:48:21;;;;;;;117.62;54.85;;;;;;;5.88;84.45;100634.22;1770010;79;21093;-79
2021/11/13 08:50:48;;;;;;;82.22;41.75;;;;;;;6.01;84.42;100624.25;1768516;81;21077;-79
2021/11/13 08:53:14;;;;;;;86.95;43.10;;;;;;;6.08;84.38;100635.97;1763599;80;21037;-79
2021/11/13 08:55:41;;;;;;;80.80;41.13;;;;;;;6.11;84.34;100625.11;1738855;82;21499;-79
2021/11/13 08:58:07;;;;;;;73.57;40.90;;;;;;;6.21;84.33;100614.05;1787129;80;20985;-79
2021/11/13 09:00:44;;;;;;;79.90;42.25;;;;;;;6.32;84.30;100628.98;1770648;81;21271;-79
2021/11/13 09:03:15;;;;;;;75.97;39.98;;;;;;;6.37;84.28;100626.25;1786920;79;21183;-79
2021/11/13 09:05:42;;;;;;;81.67;41.28;;;;;;;6.26;84.25;100638.28;1740002;80;21541;-79
2021/11/13 09:08:09;;;;;;;80.77;41.48;;;;;;;6.25;84.24;100630.50;1787459;80;21005;-79
2021/11/13 09:10:35;;;;;;;78.70;41.05;;;;;;;6.30;84.17;100633.07;1770448;81;20997;-80
2021/11/13 09:13:02;;;;;;;97.42;46.68;;;;;;;6.40;84.14;100653.78;1787376;80;21100;-80
2021/11/13 09:15:29;;;;;;;81.28;42.55;;;;;;;6.44;84.09;100652.54;1735671;81;21138;-80
2021/11/13 09:17:55;;;;;;;95.72;46.77;;;;;;;6.47;84.01;100636.37;1750323;81;21024;-81
2021/11/13 09:20:22;;;;;;;83.70;43.55;;;;;;;6.45;83.91;100647.60;1802035;79;21029;-80
2021/11/13 09:22:48;;;;;;;77.10;42.33;;;;;;;6.42;83.84;100641.27;1797738;78;21051;-81
2021/11/13 09:25:15;;;;;;;89.90;44.88;;;;;;;6.43;83.84;100648.72;1792881;78;21571;-80
2021/11/13 09:27:42;;;;;;;92.00;47.62;;;;;;;6.49;83.80;100642.86;1809398;78;21914;-81
2021/11/13 09:30:15;;;;;;;75.42;39.08;;;;;;;6.56;83.76;100649.77;1802628;78;21014;-80
2021/11/13 09:32:44;;;;;;;79.87;42.33;;;;;;;6.54;83.68;100634.03;1761746;81;21053;-81
2021/11/13 09:35:11;;;;;;;77.92;41.53;;;;;;;6.54;83.58;100621.59;1773801;80;21063;-81
2021/11/13 09:37:38;;;;;;;65.62;36.30;;;;;;;6.60;83.54;100623.35;1769763;79;21045;-81
2021/11/13 09:40:06;;;;;;;73.05;38.65;;;;;;;6.67;83.52;100632.42;1736451;82;21214;-81
2021/11/13 09:42:32;;;;;;;69.17;37.75;;;;;;;6.76;83.42;100637.71;1780784;79;21468;-81
2021/11/13 09:44:58;;;;;;;71.42;38.48;;;;;;;6.99;83.38;100638.28;1773341;80;21008;-80
2021/11/13 09:47:24;;;;;;;68.97;37.67;;;;;;;7.10;83.28;100646.08;1776794;79;20989;-81
2021/11/13 09:49:50;;;;;;;88.87;48.15;;;;;;;7.22;83.19;100639.63;1802655;79;21001;-81
2021/11/13 09:52:16;;;;;;;77.95;38.75;;;;;;;7.36;83.09;100637.85;1804316;79;21139;-81
2021/11/13 09:54:43;;;;;;;72.65;39.25;;;;;;;7.46;83.01;100629.86;1782887;79;21078;-81
2021/11/13 09:57:09;;;;;;;64.70;35.20;;;;;;;7.50;82.93;100632.09;1770942;81;21493;-81
2021/11/13 09:59:35;;;;;;;66.40;35.75;;;;;;;7.50;82.85;100618.81;1769788;81;21480;-81
2021/11/13 10:02:01;;;;;;;90.77;48.42;;;;;;;7.51;82.78;100612.54;1770703;80;21083;-81
2021/11/13 10:04:28;;;;;;;71.85;37.78;;;;;;;7.60;82.72;100612.14;1769752;80;21251;-81
2021/11/13 10:06:54;;;;;;;75.12;38.90;;;;;;;7.63;82.61;100611.88;1786586;80;21113;-81
2021/11/13 10:09:20;;;;;;;74.12;41.65;;;;;;;7.50;82.48;100622.80;1770180;81;21620;-80
2021/11/13 10:11:49;;;;;;;68.22;35.80;;;;;;;7.44;82.39;100624.71;1786433;79;21021;-80
2021/11/13 10:14:17;;;;;;;62.40;33.63;;;;;;;7.47;82.29;100627.56;1786150;79;21504;-81
2021/11/13 10:16:46;;;;;;;58.75;33.23;;;;;;;7.50;82.17;100621.95;1759053;80;21440;-80
2021/11/13 10:19:17;;;;;;;65.50;33.08;;;;;;;7.61;82.10;100621.78;1734924;82;21064;-80
2021/11/13 10:21:46;;;;;;;68.87;35.98;;;;;;;7.61;81.99;100618.29;1785314;80;21449;-81
2021/11/13 10:24:19;;;;;;;71.67;37.10;;;;;;;7.60;81.92;100618.78;1757886;80;21005;-81
2021/11/13 10:26:48;;;;;;;61.08;32.63;;;;;;;7.71;81.79;100617.76;1773187;80;20997;-81
2021/11/13 10:29:25;;;;;;;62.00;32.67;;;;;;;7.78;81.66;100622.83;1779817;80;21154;-80
2021/11/13 10:32:00;;;;;;;57.62;31.40;;;;;;;7.82;81.58;100620.23;1774822;80;20988;-80
2021/11/13 10:34:32;;;;;;;59.95;33.63;;;;;;;7.82;81.46;100622.88;1754396;81;21002;-80
2021/11/13 10:37:02;;;;;;;70.42;36.38;;;;;;;7.78;81.31;100621.50;1767753;80;21063;-80
2021/11/13 10:39:31;;;;;;;62.33;34.65;;;;;;;7.79;81.26;100620.53;1760781;81;21022;-80
2021/11/13 10:42:03;;;;;;;68.45;34.70;;;;;;;7.87;81.13;100621.97;1787911;80;21083;-81
2021/11/13 10:44:51;;;;;;;64.90;35.13;;;;;;;7.92;80.99;100609.91;1784618;80;21067;-80
2021/11/13 10:47:25;;;;;;;67.78;34.50;;;;;;;8.01;80.93;100614.83;1784769;80;21015;-80
2021/11/13 10:49:52;;;;;;;60.90;34.03;;;;;;;8.03;80.85;100611.52;1758386;80;21085;-80
2021/11/13 10:52:19;;;;;;;57.50;31.95;;;;;;;8.08;80.80;100611.93;1742097;82;21013;-81
2021/11/13 10:54:49;;;;;;;61.60;32.33;;;;;;;8.03;80.72;100604.40;1781097;80;21098;-81
2021/11/13 10:57:27;;;;;;;57.62;31.35;;;;;;;7.99;80.54;100603.50;1778233;79;20998;-81
2021/11/13 10:59:53;;;;;;;59.18;32.45;;;;;;;7.95;80.44;100612.27;1787599;79;20984;-81
2021/11/13 11:02:19;;;;;;;69.67;33.28;;;;;;;8.06;80.35;100611.23;1783857;80;21110;-81
2021/11/13 11:04:46;;;;;;;62.05;33.85;;;;;;;8.15;80.24;100613.01;1730744;80;21014;-81
2021/11/13 11:07:21;;;;;;;52.03;30.70;;;;;;;8.22;80.20;100610.09;1785217;80;21077;-81
2021/11/13 11:10:09;;;;;;;60.28;32.70;;;;;;;8.25;80.08;100605.81;1788289;78;21003;-81
2021/11/13 11:12:37;;;;;;;55.83;31.68;;;;;;;8.31;80.00;100609.22;1784070;80;21004;-81
2021/11/13 11:15:13;;;;;;;59.03;32.08;;;;;;;8.40;79.88;100605.67;1773145;78;20985;-81